sensor_id;sensor_type;location;lat;lon;timestamp;P1;durP1;ratioP1;P2;durP2;ratioP2
35225;SDS011;21813;49.686;21.766;2023-03-23T00:54:20;20.05;;;12.20;;
35225;SDS011;21813;49.686;21.766;2023-03-23T01:07:31;27.20;;;13.68;;
35225;SDS011;21813;49.686;21.766;2023-03-23T01:10:14;21.75;;;12.57;;
35225;SDS011;21813;49.686;21.766;2023-03-23T01:13:03;18.45;;;12.90;;
35225;SDS011;21813;49.686;21.766;2023-03-23T01:15:34;23.70;;;13.48;;
35225;SDS011;21813;49.686;21.766;2023-03-23T01:18:01;23.10;;;12.70;;
35225;SDS011;21813;49.686;21.766;2023-03-23T01:20:30;23.85;;;14.48;;
35225;SDS011;21813;49.686;21.766;2023-03-23T01:23:00;20.38;;;12.75;;
35225;SDS011;21813;49.686;21.766;2023-03-23T01:25:34;23.65;;;14.40;;
35225;SDS011;21813;49.686;21.766;2023-03-23T01:28:04;24.00;;;14.23;;
35225;SDS011;21813;49.686;21.766;2023-03-23T01:30:47;21.65;;;13.45;;
35225;SDS011;21813;49.686;21.766;2023-03-23T01:33:14;23.58;;;13.00;;
35225;SDS011;21813;49.686;21.766;2023-03-23T01:35:50;22.13;;;13.55;;
35225;SDS011;21813;49.686;21.766;2023-03-23T01:38:28;24.17;;;13.70;;
35225;SDS011;21813;49.686;21.766;2023-03-23T01:40:54;20.95;;;12.95;;
35225;SDS011;21813;49.686;21.766;2023-03-23T01:43:30;20.40;;;13.07;;
35225;SDS011;21813;49.686;21.766;2023-03-23T01:45:58;22.00;;;12.77;;
35225;SDS011;21813;49.686;21.766;2023-03-23T01:52:26;19.50;;;12.10;;
35225;SDS011;21813;49.686;21.766;2023-03-23T02:24:30;20.17;;;11.40;;
35225;SDS011;21813;49.686;21.766;2023-03-23T02:27:11;19.65;;;10.90;;
35225;SDS011;21813;49.686;21.766;2023-03-23T02:34:49;15.90;;;10.13;;
35225;SDS011;21813;49.686;21.766;2023-03-23T02:37:24;13.18;;;10.35;;
35225;SDS011;21813;49.686;21.766;2023-03-23T02:39:55;16.85;;;10.88;;
35225;SDS011;21813;49.686;21.766;2023-03-23T02:55:24;12.82;;;9.73;;
35225;SDS011;21813;49.686;21.766;2023-03-23T02:57:52;14.35;;;9.90;;
35225;SDS011;21813;49.686;21.766;2023-03-23T03:00:26;15.30;;;9.50;;
35225;SDS011;21813;49.686;21.766;2023-03-23T03:03:26;14.10;;;9.05;;
35225;SDS011;21813;49.686;21.766;2023-03-23T03:06:36;16.55;;;10.15;;
35225;SDS011;21813;49.686;21.766;2023-03-23T03:20:02;25.00;;;12.93;;
35225;SDS011;21813;49.686;21.766;2023-03-23T03:23:05;26.15;;;14.98;;
35225;SDS011;21813;49.686;21.766;2023-03-23T03:41:54;77.68;;;27.10;;
35225;SDS011;21813;49.686;21.766;2023-03-23T03:44:21;71.50;;;29.23;;
35225;SDS011;21813;49.686;21.766;2023-03-23T03:46:47;21.95;;;11.55;;
35225;SDS011;21813;49.686;21.766;2023-03-23T03:49:13;15.95;;;10.82;;
35225;SDS011;21813;49.686;21.766;2023-03-23T03:51:40;19.40;;;10.80;;
35225;SDS011;21813;49.686;21.766;2023-03-23T03:54:06;16.77;;;9.40;;
35225;SDS011;21813;49.686;21.766;2023-03-23T03:56:33;14.05;;;9.57;;
35225;SDS011;21813;49.686;21.766;2023-03-23T03:59:03;14.00;;;9.30;;
35225;SDS011;21813;49.686;21.766;2023-03-23T04:01:29;20.90;;;11.00;;
35225;SDS011;21813;49.686;21.766;2023-03-23T04:03:59;13.75;;;9.07;;
35225;SDS011;21813;49.686;21.766;2023-03-23T04:09:59;15.70;;;9.88;;
35225;SDS011;21813;49.686;21.766;2023-03-23T04:12:25;16.42;;;9.50;;
35225;SDS011;21813;49.686;21.766;2023-03-23T04:14:55;12.88;;;9.55;;
35225;SDS011;21813;49.686;21.766;2023-03-23T04:17:42;17.80;;;9.25;;
35225;SDS011;21813;49.686;21.766;2023-03-23T04:20:13;14.02;;;9.13;;
35225;SDS011;21813;49.686;21.766;2023-03-23T04:22:43;26.05;;;10.35;;
35225;SDS011;21813;49.686;21.766;2023-03-23T04:25:14;13.50;;;9.00;;
35225;SDS011;21813;49.686;21.766;2023-03-23T04:27:51;12.75;;;9.32;;
35225;SDS011;21813;49.686;21.766;2023-03-23T04:30:35;14.60;;;9.73;;
35225;SDS011;21813;49.686;21.766;2023-03-23T04:33:03;15.13;;;9.70;;
35225;SDS011;21813;49.686;21.766;2023-03-23T04:35:29;15.75;;;9.05;;
35225;SDS011;21813;49.686;21.766;2023-03-23T04:37:57;12.98;;;9.63;;
35225;SDS011;21813;49.686;21.766;2023-03-23T04:40:25;14.65;;;9.25;;
35225;SDS011;21813;49.686;21.766;2023-03-23T04:42:53;16.73;;;9.80;;
35225;SDS011;21813;49.686;21.766;2023-03-23T04:45:25;14.48;;;9.70;;
35225;SDS011;21813;49.686;21.766;2023-03-23T04:47:53;16.83;;;9.70;;
35225;SDS011;21813;49.686;21.766;2023-03-23T04:51:20;14.77;;;8.70;;
35225;SDS011;21813;49.686;21.766;2023-03-23T04:54:03;15.73;;;9.27;;
35225;SDS011;21813;49.686;21.766;2023-03-23T04:57:52;20.30;;;10.88;;
35225;SDS011;21813;49.686;21.766;2023-03-23T05:04:14;19.35;;;10.98;;
35225;SDS011;21813;49.686;21.766;2023-03-23T05:35:37;20.98;;;9.88;;
35225;SDS011;21813;49.686;21.766;2023-03-23T05:38:03;14.00;;;9.25;;
35225;SDS011;21813;49.686;21.766;2023-03-23T05:40:35;11.65;;;9.25;;
35225;SDS011;21813;49.686;21.766;2023-03-23T05:43:06;14.18;;;8.80;;
35225;SDS011;21813;49.686;21.766;2023-03-23T05:45:35;12.65;;;8.73;;
35225;SDS011;21813;49.686;21.766;2023-03-23T05:48:03;18.65;;;9.35;;
35225;SDS011;21813;49.686;21.766;2023-03-23T05:50:29;14.15;;;8.27;;
35225;SDS011;21813;49.686;21.766;2023-03-23T05:52:55;11.02;;;8.13;;
35225;SDS011;21813;49.686;21.766;2023-03-23T05:59:02;13.10;;;8.85;;
35225;SDS011;21813;49.686;21.766;2023-03-23T06:01:29;14.88;;;9.63;;
35225;SDS011;21813;49.686;21.766;2023-03-23T06:15:21;11.32;;;8.18;;
35225;SDS011;21813;49.686;21.766;2023-03-23T06:18:02;16.42;;;8.30;;
35225;SDS011;21813;49.686;21.766;2023-03-23T06:20:29;13.52;;;8.07;;
35225;SDS011;21813;49.686;21.766;2023-03-23T06:23:00;11.38;;;7.90;;
35225;SDS011;21813;49.686;21.766;2023-03-23T06:26:34;12.82;;;7.75;;
35225;SDS011;21813;49.686;21.766;2023-03-23T06:29:07;11.70;;;7.60;;
35225;SDS011;21813;49.686;21.766;2023-03-23T06:31:58;12.98;;;7.10;;
35225;SDS011;21813;49.686;21.766;2023-03-23T06:34:30;11.18;;;7.90;;
35225;SDS011;21813;49.686;21.766;2023-03-23T06:39:53;10.45;;;7.35;;
35225;SDS011;21813;49.686;21.766;2023-03-23T06:45:15;11.90;;;7.03;;
35225;SDS011;21813;49.686;21.766;2023-03-23T06:47:42;9.35;;;7.45;;
35225;SDS011;21813;49.686;21.766;2023-03-23T06:50:08;17.38;;;7.03;;
35225;SDS011;21813;49.686;21.766;2023-03-23T06:52:37;7.10;;;6.05;;
35225;SDS011;21813;49.686;21.766;2023-03-23T06:55:02;9.38;;;6.43;;
35225;SDS011;21813;49.686;21.766;2023-03-23T06:57:30;9.73;;;6.35;;
35225;SDS011;21813;49.686;21.766;2023-03-23T06:59:55;9.88;;;6.45;;
35225;SDS011;21813;49.686;21.766;2023-03-23T07:02:28;10.63;;;6.93;;
35225;SDS011;21813;49.686;21.766;2023-03-23T07:04:56;9.32;;;6.28;;
35225;SDS011;21813;49.686;21.766;2023-03-23T07:07:50;7.90;;;6.20;;
35225;SDS011;21813;49.686;21.766;2023-03-23T07:10:16;10.40;;;6.20;;
35225;SDS011;21813;49.686;21.766;2023-03-23T07:12:58;9.20;;;6.00;;
35225;SDS011;21813;49.686;21.766;2023-03-23T07:15:24;10.48;;;5.78;;
35225;SDS011;21813;49.686;21.766;2023-03-23T07:17:53;8.02;;;6.07;;
35225;SDS011;21813;49.686;21.766;2023-03-23T07:20:21;10.23;;;6.40;;
35225;SDS011;21813;49.686;21.766;2023-03-23T07:26:58;6.50;;;5.47;;
35225;SDS011;21813;49.686;21.766;2023-03-23T07:29:23;9.02;;;5.80;;
35225;SDS011;21813;49.686;21.766;2023-03-23T07:32:05;10.13;;;5.93;;
35225;SDS011;21813;49.686;21.766;2023-03-23T07:34:31;8.05;;;5.85;;
35225;SDS011;21813;49.686;21.766;2023-03-23T07:36:59;9.00;;;5.75;;
35225;SDS011;21813;49.686;21.766;2023-03-23T07:39:25;9.57;;;6.03;;
35225;SDS011;21813;49.686;21.766;2023-03-23T07:41:52;9.65;;;6.75;;
35225;SDS011;21813;49.686;21.766;2023-03-23T07:44:18;9.73;;;6.53;;
35225;SDS011;21813;49.686;21.766;2023-03-23T07:46:45;9.02;;;5.80;;
35225;SDS011;21813;49.686;21.766;2023-03-23T07:49:12;8.15;;;6.32;;
35225;SDS011;21813;49.686;21.766;2023-03-23T07:51:40;8.48;;;5.65;;
35225;SDS011;21813;49.686;21.766;2023-03-23T07:54:09;8.00;;;5.50;;
35225;SDS011;21813;49.686;21.766;2023-03-23T07:56:38;7.38;;;5.43;;
35225;SDS011;21813;49.686;21.766;2023-03-23T07:59:05;10.18;;;5.63;;
35225;SDS011;21813;49.686;21.766;2023-03-23T08:01:36;9.52;;;5.20;;
35225;SDS011;21813;49.686;21.766;2023-03-23T08:04:01;6.22;;;4.65;;
35225;SDS011;21813;49.686;21.766;2023-03-23T08:06:34;7.35;;;5.05;;
35225;SDS011;21813;49.686;21.766;2023-03-23T08:09:00;7.57;;;5.38;;
35225;SDS011;21813;49.686;21.766;2023-03-23T08:11:28;6.68;;;4.88;;
35225;SDS011;21813;49.686;21.766;2023-03-23T08:13:54;6.65;;;4.47;;
35225;SDS011;21813;49.686;21.766;2023-03-23T08:16:21;6.80;;;4.97;;
35225;SDS011;21813;49.686;21.766;2023-03-23T08:18:47;7.65;;;5.13;;
35225;SDS011;21813;49.686;21.766;2023-03-23T08:21:13;9.18;;;5.18;;
35225;SDS011;21813;49.686;21.766;2023-03-23T08:23:39;7.65;;;5.05;;
35225;SDS011;21813;49.686;21.766;2023-03-23T08:26:07;8.80;;;6.07;;
35225;SDS011;21813;49.686;21.766;2023-03-23T08:28:35;8.50;;;5.70;;
35225;SDS011;21813;49.686;21.766;2023-03-23T08:31:07;9.85;;;5.72;;
35225;SDS011;21813;49.686;21.766;2023-03-23T08:33:34;7.53;;;5.13;;
35225;SDS011;21813;49.686;21.766;2023-03-23T08:36:02;6.78;;;5.05;;
35225;SDS011;21813;49.686;21.766;2023-03-23T08:38:31;10.98;;;6.07;;
35225;SDS011;21813;49.686;21.766;2023-03-23T08:41:06;9.93;;;5.00;;
35225;SDS011;21813;49.686;21.766;2023-03-23T08:43:50;9.48;;;5.80;;
35225;SDS011;21813;49.686;21.766;2023-03-23T08:46:18;7.72;;;5.57;;
35225;SDS011;21813;49.686;21.766;2023-03-23T08:48:45;6.80;;;5.13;;
35225;SDS011;21813;49.686;21.766;2023-03-23T08:51:12;12.38;;;5.22;;
35225;SDS011;21813;49.686;21.766;2023-03-23T08:53:38;7.35;;;5.38;;
35225;SDS011;21813;49.686;21.766;2023-03-23T08:56:05;9.65;;;5.65;;
35225;SDS011;21813;49.686;21.766;2023-03-23T08:58:34;8.30;;;5.22;;
35225;SDS011;21813;49.686;21.766;2023-03-23T09:01:06;8.20;;;5.35;;
35225;SDS011;21813;49.686;21.766;2023-03-23T09:03:55;9.30;;;5.88;;
35225;SDS011;21813;49.686;21.766;2023-03-23T09:06:25;8.35;;;6.03;;
35225;SDS011;21813;49.686;21.766;2023-03-23T09:08:51;8.77;;;5.80;;
35225;SDS011;21813;49.686;21.766;2023-03-23T09:11:19;7.95;;;5.50;;
35225;SDS011;21813;49.686;21.766;2023-03-23T09:13:44;11.38;;;6.70;;
35225;SDS011;21813;49.686;21.766;2023-03-23T09:16:11;9.82;;;5.93;;
35225;SDS011;21813;49.686;21.766;2023-03-23T09:18:37;7.82;;;5.35;;
35225;SDS011;21813;49.686;21.766;2023-03-23T09:21:04;8.00;;;5.82;;
35225;SDS011;21813;49.686;21.766;2023-03-23T09:23:30;9.70;;;6.07;;
35225;SDS011;21813;49.686;21.766;2023-03-23T09:26:00;9.40;;;5.53;;
35225;SDS011;21813;49.686;21.766;2023-03-23T09:28:27;8.57;;;5.70;;
35225;SDS011;21813;49.686;21.766;2023-03-23T09:30:55;7.63;;;5.90;;
35225;SDS011;21813;49.686;21.766;2023-03-23T09:33:26;7.53;;;5.60;;
35225;SDS011;21813;49.686;21.766;2023-03-23T09:35:59;7.47;;;5.65;;
35225;SDS011;21813;49.686;21.766;2023-03-23T09:38:27;11.18;;;6.10;;
35225;SDS011;21813;49.686;21.766;2023-03-23T09:41:04;7.72;;;6.00;;
35225;SDS011;21813;49.686;21.766;2023-03-23T09:49:08;9.77;;;6.57;;
35225;SDS011;21813;49.686;21.766;2023-03-23T09:51:41;11.57;;;6.45;;
35225;SDS011;21813;49.686;21.766;2023-03-23T09:57:04;10.45;;;5.82;;
35225;SDS011;21813;49.686;21.766;2023-03-23T10:04:54;8.38;;;6.22;;
35225;SDS011;21813;49.686;21.766;2023-03-23T10:07:27;8.00;;;6.00;;
35225;SDS011;21813;49.686;21.766;2023-03-23T10:09:55;6.85;;;5.45;;
35225;SDS011;21813;49.686;21.766;2023-03-23T10:20:23;6.38;;;5.40;;
35225;SDS011;21813;49.686;21.766;2023-03-23T10:23:04;10.45;;;6.28;;
35225;SDS011;21813;49.686;21.766;2023-03-23T10:25:32;12.38;;;6.15;;
35225;SDS011;21813;49.686;21.766;2023-03-23T10:30:44;10.52;;;5.70;;
35225;SDS011;21813;49.686;21.766;2023-03-23T10:33:41;9.82;;;5.78;;
35225;SDS011;21813;49.686;21.766;2023-03-23T10:36:30;8.43;;;5.85;;
35225;SDS011;21813;49.686;21.766;2023-03-23T10:39:19;11.73;;;5.93;;
35225;SDS011;21813;49.686;21.766;2023-03-23T10:41:47;7.00;;;4.18;;
35225;SDS011;21813;49.686;21.766;2023-03-23T10:44:21;8.95;;;5.72;;
35225;SDS011;21813;49.686;21.766;2023-03-23T10:46:53;7.43;;;5.63;;
35225;SDS011;21813;49.686;21.766;2023-03-23T10:49:27;9.15;;;5.95;;
35225;SDS011;21813;49.686;21.766;2023-03-23T10:57:30;10.02;;;6.25;;
35225;SDS011;21813;49.686;21.766;2023-03-23T11:02:47;7.88;;;5.40;;
35225;SDS011;21813;49.686;21.766;2023-03-23T11:05:23;6.78;;;5.25;;
35225;SDS011;21813;49.686;21.766;2023-03-23T11:07:57;10.38;;;5.70;;
35225;SDS011;21813;49.686;21.766;2023-03-23T11:10:35;10.97;;;5.50;;
35225;SDS011;21813;49.686;21.766;2023-03-23T11:13:12;10.70;;;7.28;;
35225;SDS011;21813;49.686;21.766;2023-03-23T11:15:48;6.60;;;5.43;;
35225;SDS011;21813;49.686;21.766;2023-03-23T11:18:19;8.75;;;5.57;;
35225;SDS011;21813;49.686;21.766;2023-03-23T11:20:56;9.95;;;5.60;;
35225;SDS011;21813;49.686;21.766;2023-03-23T11:23:24;9.82;;;5.70;;
35225;SDS011;21813;49.686;21.766;2023-03-23T11:25:57;9.95;;;6.25;;
35225;SDS011;21813;49.686;21.766;2023-03-23T11:29:25;11.63;;;6.30;;
35225;SDS011;21813;49.686;21.766;2023-03-23T11:31:35;9.70;;;6.28;;
35225;SDS011;21813;49.686;21.766;2023-03-23T11:34:16;6.75;;;5.38;;
35225;SDS011;21813;49.686;21.766;2023-03-23T11:36:49;9.75;;;5.72;;
35225;SDS011;21813;49.686;21.766;2023-03-23T11:41:55;15.90;;;5.70;;
35225;SDS011;21813;49.686;21.766;2023-03-23T11:44:23;7.03;;;5.40;;
35225;SDS011;21813;49.686;21.766;2023-03-23T11:47:02;7.95;;;6.18;;
35225;SDS011;21813;49.686;21.766;2023-03-23T11:49:38;14.32;;;7.38;;
35225;SDS011;21813;49.686;21.766;2023-03-23T11:52:26;10.30;;;6.35;;
35225;SDS011;21813;49.686;21.766;2023-03-23T11:55:09;9.15;;;5.55;;
35225;SDS011;21813;49.686;21.766;2023-03-23T11:57:41;7.82;;;5.60;;
35225;SDS011;21813;49.686;21.766;2023-03-23T12:00:17;10.70;;;5.90;;
35225;SDS011;21813;49.686;21.766;2023-03-23T12:06:05;8.48;;;6.00;;
35225;SDS011;21813;49.686;21.766;2023-03-23T12:14:11;7.72;;;5.90;;
35225;SDS011;21813;49.686;21.766;2023-03-23T12:30:27;9.63;;;5.97;;
35225;SDS011;21813;49.686;21.766;2023-03-23T12:33:08;9.00;;;5.90;;
35225;SDS011;21813;49.686;21.766;2023-03-23T12:35:39;13.25;;;6.40;;
35225;SDS011;21813;49.686;21.766;2023-03-23T12:40:48;7.85;;;5.90;;
35225;SDS011;21813;49.686;21.766;2023-03-23T12:43:41;10.73;;;6.22;;
35225;SDS011;21813;49.686;21.766;2023-03-23T12:46:39;8.23;;;5.97;;
35225;SDS011;21813;49.686;21.766;2023-03-23T12:57:48;9.95;;;6.32;;
35225;SDS011;21813;49.686;21.766;2023-03-23T13:00:46;9.40;;;6.63;;
35225;SDS011;21813;49.686;21.766;2023-03-23T13:11:45;9.05;;;5.30;;
35225;SDS011;21813;49.686;21.766;2023-03-23T13:23:12;8.05;;;5.20;;
35225;SDS011;21813;49.686;21.766;2023-03-23T13:25:58;7.20;;;4.90;;
35225;SDS011;21813;49.686;21.766;2023-03-23T13:28:29;7.43;;;5.00;;
35225;SDS011;21813;49.686;21.766;2023-03-23T13:31:00;8.30;;;5.28;;
35225;SDS011;21813;49.686;21.766;2023-03-23T13:33:29;9.32;;;5.00;;
35225;SDS011;21813;49.686;21.766;2023-03-23T13:35:57;8.23;;;4.97;;
35225;SDS011;21813;49.686;21.766;2023-03-23T13:38:33;7.00;;;5.03;;
35225;SDS011;21813;49.686;21.766;2023-03-23T13:41:13;9.85;;;5.47;;
35225;SDS011;21813;49.686;21.766;2023-03-23T13:43:41;14.20;;;5.37;;
35225;SDS011;21813;49.686;21.766;2023-03-23T13:48:42;9.57;;;4.90;;
35225;SDS011;21813;49.686;21.766;2023-03-23T13:51:24;6.68;;;4.72;;
35225;SDS011;21813;49.686;21.766;2023-03-23T13:54:14;6.63;;;4.28;;
35225;SDS011;21813;49.686;21.766;2023-03-23T13:59:56;5.68;;;4.30;;
35225;SDS011;21813;49.686;21.766;2023-03-23T14:07:54;4.85;;;3.90;;
35225;SDS011;21813;49.686;21.766;2023-03-23T14:10:39;7.10;;;4.38;;
35225;SDS011;21813;49.686;21.766;2023-03-23T14:13:50;9.15;;;4.45;;
35225;SDS011;21813;49.686;21.766;2023-03-23T14:19:01;8.73;;;4.10;;
35225;SDS011;21813;49.686;21.766;2023-03-23T14:21:35;6.30;;;4.55;;
35225;SDS011;21813;49.686;21.766;2023-03-23T14:24:12;7.68;;;4.13;;
35225;SDS011;21813;49.686;21.766;2023-03-23T14:26:42;7.75;;;4.38;;
35225;SDS011;21813;49.686;21.766;2023-03-23T14:29:10;7.00;;;4.50;;
35225;SDS011;21813;49.686;21.766;2023-03-23T14:31:39;8.25;;;4.05;;
35225;SDS011;21813;49.686;21.766;2023-03-23T14:34:11;5.57;;;4.15;;
35225;SDS011;21813;49.686;21.766;2023-03-23T14:36:41;7.60;;;4.85;;
35225;SDS011;21813;49.686;21.766;2023-03-23T14:41:43;6.68;;;3.90;;
35225;SDS011;21813;49.686;21.766;2023-03-23T14:44:12;6.82;;;4.28;;
35225;SDS011;21813;49.686;21.766;2023-03-23T14:46:42;6.00;;;4.13;;
35225;SDS011;21813;49.686;21.766;2023-03-23T14:49:15;7.10;;;4.60;;
35225;SDS011;21813;49.686;21.766;2023-03-23T14:51:46;7.95;;;4.57;;
35225;SDS011;21813;49.686;21.766;2023-03-23T14:54:21;7.65;;;4.45;;
35225;SDS011;21813;49.686;21.766;2023-03-23T14:56:53;6.03;;;4.13;;
35225;SDS011;21813;49.686;21.766;2023-03-23T14:59:19;6.80;;;4.47;;
35225;SDS011;21813;49.686;21.766;2023-03-23T15:01:47;7.45;;;4.63;;
35225;SDS011;21813;49.686;21.766;2023-03-23T15:04:17;7.53;;;4.05;;
35225;SDS011;21813;49.686;21.766;2023-03-23T15:06:49;7.38;;;4.57;;
35225;SDS011;21813;49.686;21.766;2023-03-23T15:09:18;7.38;;;5.10;;
35225;SDS011;21813;49.686;21.766;2023-03-23T15:14:49;9.32;;;4.10;;
35225;SDS011;21813;49.686;21.766;2023-03-23T15:17:19;7.90;;;3.78;;
35225;SDS011;21813;49.686;21.766;2023-03-23T15:19:46;11.93;;;4.30;;
35225;SDS011;21813;49.686;21.766;2023-03-23T15:22:20;7.78;;;4.22;;
35225;SDS011;21813;49.686;21.766;2023-03-23T15:24:50;7.60;;;5.05;;
35225;SDS011;21813;49.686;21.766;2023-03-23T15:27:27;8.40;;;5.03;;
35225;SDS011;21813;49.686;21.766;2023-03-23T15:29:58;5.55;;;4.03;;
35225;SDS011;21813;49.686;21.766;2023-03-23T15:32:28;7.63;;;4.55;;
35225;SDS011;21813;49.686;21.766;2023-03-23T15:34:55;6.70;;;4.68;;
35225;SDS011;21813;49.686;21.766;2023-03-23T15:37:25;9.23;;;5.68;;
35225;SDS011;21813;49.686;21.766;2023-03-23T15:39:59;8.82;;;4.47;;
35225;SDS011;21813;49.686;21.766;2023-03-23T15:42:41;7.10;;;4.57;;
35225;SDS011;21813;49.686;21.766;2023-03-23T15:48:10;6.75;;;3.90;;
35225;SDS011;21813;49.686;21.766;2023-03-23T15:50:46;5.07;;;3.83;;
35225;SDS011;21813;49.686;21.766;2023-03-23T15:53:40;7.43;;;4.57;;
35225;SDS011;21813;49.686;21.766;2023-03-23T15:56:17;7.63;;;5.18;;
35225;SDS011;21813;49.686;21.766;2023-03-23T15:58:43;9.00;;;5.15;;
35225;SDS011;21813;49.686;21.766;2023-03-23T16:01:19;9.88;;;5.20;;
35225;SDS011;21813;49.686;21.766;2023-03-23T16:06:20;14.23;;;6.22;;
35225;SDS011;21813;49.686;21.766;2023-03-23T16:08:48;25.27;;;9.85;;
35225;SDS011;21813;49.686;21.766;2023-03-23T16:11:15;18.88;;;9.20;;
35225;SDS011;21813;49.686;21.766;2023-03-23T16:13:42;20.05;;;10.35;;
35225;SDS011;21813;49.686;21.766;2023-03-23T16:16:14;22.67;;;9.85;;
35225;SDS011;21813;49.686;21.766;2023-03-23T16:18:42;25.95;;;10.07;;
35225;SDS011;21813;49.686;21.766;2023-03-23T16:21:09;16.92;;;8.30;;
35225;SDS011;21813;49.686;21.766;2023-03-23T16:23:35;17.17;;;8.20;;
35225;SDS011;21813;49.686;21.766;2023-03-23T16:26:02;13.68;;;6.85;;
35225;SDS011;21813;49.686;21.766;2023-03-23T16:28:27;8.43;;;5.10;;
35225;SDS011;21813;49.686;21.766;2023-03-23T16:30:54;9.15;;;5.45;;
35225;SDS011;21813;49.686;21.766;2023-03-23T16:33:20;9.80;;;5.72;;
35225;SDS011;21813;49.686;21.766;2023-03-23T16:35:47;11.00;;;5.55;;
35225;SDS011;21813;49.686;21.766;2023-03-23T16:38:13;10.52;;;6.63;;
35225;SDS011;21813;49.686;21.766;2023-03-23T16:40:44;12.13;;;7.17;;
35225;SDS011;21813;49.686;21.766;2023-03-23T16:43:11;14.93;;;7.85;;
35225;SDS011;21813;49.686;21.766;2023-03-23T16:45:40;14.77;;;8.00;;
35225;SDS011;21813;49.686;21.766;2023-03-23T16:48:07;15.05;;;6.40;;
35225;SDS011;21813;49.686;21.766;2023-03-23T16:50:35;11.30;;;7.05;;
35225;SDS011;21813;49.686;21.766;2023-03-23T16:53:02;12.20;;;5.65;;
35225;SDS011;21813;49.686;21.766;2023-03-23T16:55:30;10.20;;;6.45;;
35225;SDS011;21813;49.686;21.766;2023-03-23T16:57:56;10.10;;;6.15;;
35225;SDS011;21813;49.686;21.766;2023-03-23T17:00:23;17.65;;;7.03;;
35225;SDS011;21813;49.686;21.766;2023-03-23T17:02:54;11.52;;;6.88;;
35225;SDS011;21813;49.686;21.766;2023-03-23T17:05:25;8.88;;;6.20;;
35225;SDS011;21813;49.686;21.766;2023-03-23T17:07:56;9.80;;;5.88;;
35225;SDS011;21813;49.686;21.766;2023-03-23T17:10:24;9.32;;;6.07;;
35225;SDS011;21813;49.686;21.766;2023-03-23T17:16:09;12.10;;;6.20;;
35225;SDS011;21813;49.686;21.766;2023-03-23T17:18:43;12.32;;;5.93;;
35225;SDS011;21813;49.686;21.766;2023-03-23T17:24:03;9.02;;;5.93;;
35225;SDS011;21813;49.686;21.766;2023-03-23T17:26:47;9.85;;;6.65;;
35225;SDS011;21813;49.686;21.766;2023-03-23T17:32:55;10.27;;;6.07;;
35225;SDS011;21813;49.686;21.766;2023-03-23T17:36:06;10.88;;;6.32;;
35225;SDS011;21813;49.686;21.766;2023-03-23T17:38:30;14.43;;;7.07;;
35225;SDS011;21813;49.686;21.766;2023-03-23T17:40:59;10.07;;;6.53;;
35225;SDS011;21813;49.686;21.766;2023-03-23T17:43:27;14.77;;;6.95;;
35225;SDS011;21813;49.686;21.766;2023-03-23T17:45:53;11.10;;;7.03;;
35225;SDS011;21813;49.686;21.766;2023-03-23T17:48:20;10.38;;;6.53;;
35225;SDS011;21813;49.686;21.766;2023-03-23T17:50:46;8.13;;;5.53;;
35225;SDS011;21813;49.686;21.766;2023-03-23T17:53:15;8.55;;;5.78;;
35225;SDS011;21813;49.686;21.766;2023-03-23T17:55:51;14.90;;;5.80;;
35225;SDS011;21813;49.686;21.766;2023-03-23T17:58:19;17.42;;;8.45;;
35225;SDS011;21813;49.686;21.766;2023-03-23T18:03:45;8.05;;;5.70;;
35225;SDS011;21813;49.686;21.766;2023-03-23T18:06:15;13.40;;;6.60;;
35225;SDS011;21813;49.686;21.766;2023-03-23T18:08:41;10.10;;;5.82;;
35225;SDS011;21813;49.686;21.766;2023-03-23T18:11:36;9.45;;;6.60;;
35225;SDS011;21813;49.686;21.766;2023-03-23T18:14:08;13.82;;;6.30;;
35225;SDS011;21813;49.686;21.766;2023-03-23T18:16:38;11.02;;;7.00;;
35225;SDS011;21813;49.686;21.766;2023-03-23T18:19:03;12.70;;;6.82;;
35225;SDS011;21813;49.686;21.766;2023-03-23T18:21:32;19.77;;;6.70;;
35225;SDS011;21813;49.686;21.766;2023-03-23T18:23:57;13.57;;;6.70;;
35225;SDS011;21813;49.686;21.766;2023-03-23T18:26:25;13.60;;;7.90;;
35225;SDS011;21813;49.686;21.766;2023-03-23T18:28:51;12.80;;;6.95;;
35225;SDS011;21813;49.686;21.766;2023-03-23T18:31:34;10.77;;;5.72;;
35225;SDS011;21813;49.686;21.766;2023-03-23T18:34:04;7.50;;;5.22;;
35225;SDS011;21813;49.686;21.766;2023-03-23T18:36:32;10.82;;;5.75;;
35225;SDS011;21813;49.686;21.766;2023-03-23T18:39:15;12.25;;;6.15;;
35225;SDS011;21813;49.686;21.766;2023-03-23T18:41:43;14.05;;;5.90;;
35225;SDS011;21813;49.686;21.766;2023-03-23T18:44:08;10.88;;;5.07;;
35225;SDS011;21813;49.686;21.766;2023-03-23T18:46:36;6.78;;;4.38;;
35225;SDS011;21813;49.686;21.766;2023-03-23T18:49:02;12.43;;;5.38;;
35225;SDS011;21813;49.686;21.766;2023-03-23T18:51:29;6.25;;;4.75;;
35225;SDS011;21813;49.686;21.766;2023-03-23T18:53:55;6.25;;;4.60;;
35225;SDS011;21813;49.686;21.766;2023-03-23T18:56:22;5.75;;;4.22;;
35225;SDS011;21813;49.686;21.766;2023-03-23T18:58:55;10.32;;;5.00;;
35225;SDS011;21813;49.686;21.766;2023-03-23T19:01:21;6.57;;;4.65;;
35225;SDS011;21813;49.686;21.766;2023-03-23T19:03:47;8.00;;;5.10;;
35225;SDS011;21813;49.686;21.766;2023-03-23T19:06:15;7.57;;;4.60;;
35225;SDS011;21813;49.686;21.766;2023-03-23T19:08:44;8.10;;;4.75;;
35225;SDS011;21813;49.686;21.766;2023-03-23T19:11:11;7.47;;;4.80;;
35225;SDS011;21813;49.686;21.766;2023-03-23T19:13:37;6.13;;;4.38;;
35225;SDS011;21813;49.686;21.766;2023-03-23T19:16:04;5.95;;;4.60;;
35225;SDS011;21813;49.686;21.766;2023-03-23T19:18:31;7.03;;;4.85;;
35225;SDS011;21813;49.686;21.766;2023-03-23T19:20:58;10.05;;;4.70;;
35225;SDS011;21813;49.686;21.766;2023-03-23T19:23:23;7.15;;;4.80;;
35225;SDS011;21813;49.686;21.766;2023-03-23T19:25:51;5.93;;;4.35;;
35225;SDS011;21813;49.686;21.766;2023-03-23T19:28:17;7.05;;;4.68;;
35225;SDS011;21813;49.686;21.766;2023-03-23T19:30:46;7.80;;;4.40;;
35225;SDS011;21813;49.686;21.766;2023-03-23T19:33:13;7.40;;;4.47;;
35225;SDS011;21813;49.686;21.766;2023-03-23T19:35:41;5.25;;;4.10;;
35225;SDS011;21813;49.686;21.766;2023-03-23T19:38:07;8.65;;;4.40;;
35225;SDS011;21813;49.686;21.766;2023-03-23T19:40:34;7.60;;;4.85;;
35225;SDS011;21813;49.686;21.766;2023-03-23T19:43:03;12.63;;;6.55;;
35225;SDS011;21813;49.686;21.766;2023-03-23T19:45:47;15.80;;;7.40;;
35225;SDS011;21813;49.686;21.766;2023-03-23T19:48:14;9.35;;;4.65;;
35225;SDS011;21813;49.686;21.766;2023-03-23T19:50:43;7.45;;;4.28;;
35225;SDS011;21813;49.686;21.766;2023-03-23T19:53:11;6.75;;;4.68;;
35225;SDS011;21813;49.686;21.766;2023-03-23T19:55:42;8.80;;;3.95;;
35225;SDS011;21813;49.686;21.766;2023-03-23T19:58:08;5.97;;;4.35;;
35225;SDS011;21813;49.686;21.766;2023-03-23T20:00:37;7.70;;;4.32;;
35225;SDS011;21813;49.686;21.766;2023-03-23T20:03:09;7.30;;;4.32;;
35225;SDS011;21813;49.686;21.766;2023-03-23T20:05:57;8.10;;;4.18;;
35225;SDS011;21813;49.686;21.766;2023-03-23T20:08:25;8.25;;;4.95;;
35225;SDS011;21813;49.686;21.766;2023-03-23T20:10:51;7.80;;;4.13;;
35225;SDS011;21813;49.686;21.766;2023-03-23T20:13:18;5.80;;;4.15;;
35225;SDS011;21813;49.686;21.766;2023-03-23T20:15:44;6.05;;;4.20;;
35225;SDS011;21813;49.686;21.766;2023-03-23T20:18:17;5.68;;;4.85;;
35225;SDS011;21813;49.686;21.766;2023-03-23T20:20:43;5.25;;;4.18;;
35225;SDS011;21813;49.686;21.766;2023-03-23T20:23:15;9.52;;;5.25;;
35225;SDS011;21813;49.686;21.766;2023-03-23T20:25:42;7.78;;;4.47;;